Indian Springs, Nevada Weather observations

Data are for observation ending at time listed.
 Day   Time    Ave.   Ave.  Ave.  Vector   Max.   Stn.    Total    Solar   Ave.  
  of    of     Air    Rel.  Wind   Wind    Wind   Baro.  Precip.   Rad.    Soil  
Year   Day     Temp.  Hum.  Speed  Dir.    Gust   Pres.                    Temp. 
2014   (PST)    F      %     mph   deg.    mph     mb.     in.     W/m2     F   
------------------------------------------------------------------------------
 350   13:50   51.5    35    1.8    14      4.0   903.6    0.00     339    49.7
 350   14:00   51.5    35    1.4   316      3.4   903.4    0.00     310    49.9
 350   14:10   52.0    34    1.3    87      3.9   903.4    0.00     304    50.2
 350   14:20   52.2    34    1.5   347      3.4   903.4    0.00     258    50.4
 350   14:30   52.5    33    1.2    13      3.4   903.4    0.00     215    50.6
 350   14:40   52.1    34    1.2   310      3.1   903.4    0.00     184    50.7
 350   14:50   52.2    34    1.3   288      3.2   903.1    0.00     149    50.9
 350   15:00   52.4    33    1.1   280      3.0   903.1    0.00     128    51.0
 350   15:10   51.9    34    1.2   300      2.5   903.0    0.00     109    51.1
 350   15:20   51.4    35    0.8   343      2.4   903.1    0.00      91    51.1
 350   15:30   50.9    36    1.6     7      2.8   903.0    0.00      71    51.1
 350   15:40   50.4    36    1.1   356      2.1   903.0    0.00      56    51.1
 350   15:50   50.1    36    1.2    13      2.8   902.9    0.00      38    51.1
 350   16:00   50.1    37    0.8    14      1.8   902.8    0.00      28    51.0
 350   16:10   49.6    38    0.8    21      1.8   902.9    0.00      21    51.0
 350   16:20   49.2    40    1.3     8      2.2   902.8    0.00      11    50.9
 350   16:30   48.4    42    1.2    22      3.1   902.6    0.00       4    50.8
 350   16:40   47.9    43    0.8    26      2.5   902.6    0.00       2    50.7
 350   16:50   47.4    44    0.7    39      2.1   902.6    0.00       0    50.6
 350   17:00   47.2    44    0.8    51      2.8   902.5    0.00       0    50.5
 350   17:10   47.1    44    0.6    15      1.8   902.4    0.00       0    50.4
 350   17:20   46.9    44    0.1    40      1.1   902.5    0.00       0    50.3
 350   17:30   46.6    45    0.1   145      0.8   902.4    0.00       0    50.1
 350   17:40   46.1    46    0.0   151      0.5   902.4    0.00       0    50.0
 350   17:50   45.9    47    0.0    88      0.5   902.4    0.00       0    49.9
 350   18:00   45.7    48    0.0    61      0.5   902.5    0.00       0    49.8
 350   18:10   45.5    50    0.3   221      1.9   902.6    0.00       0    49.7
 350   18:20   45.7    50    0.1   142      0.6   902.6    0.00       0    49.6
 350   18:30   45.9    49    0.0     0      0.0   902.5    0.00       0    49.4
 350   18:40   46.1    49    0.9   226      1.7   902.6    0.00       0    49.3
 350   18:50   46.5    48    0.3   266      1.4   902.7    0.00       0    49.2
 350   19:00   46.2    51    0.8   319      1.9   902.8    0.00       0    49.1
 350   19:10   46.0    51    0.3   279      1.5   902.8    0.00       0    49.1
 350   19:20   45.7    51    0.5   350      2.5   902.9    0.00       0    49.0
 350   19:30   45.8    50    1.7   280      3.2   902.9    0.00       0    48.9
 350   19:40   45.8    51    1.1   138      2.1   902.9    0.00       0    48.9
 350   19:50   45.6    51    0.8    65      2.0   902.9    0.00       0    48.8
 350   20:00   46.0    50    0.6   216      1.5   903.0    0.00       0    48.8
 350   20:10   45.8    51    0.4   146      1.5   903.1    0.00       0    48.7
 350   20:20   46.0    50    1.3   235      2.0   903.0    0.00       0    48.7
 350   20:30   45.9    52    1.2   241      2.3   903.1    0.00       0    48.6
 350   20:40   45.8    51    1.7   228      3.1   903.0    0.00       0    48.6
 350   20:50   45.9    51    2.3   224      3.7   903.0    0.00       0    48.5
 350   21:00   45.8    50    2.1   223      3.4   903.0    0.00       0    48.5
 350   21:10   45.9    50    0.9   208      2.6   903.0    0.00       0    48.4
 350   21:20   46.0    50    0.7   206      2.2   903.0    0.00       0    48.4
 350   21:30   45.9    51    0.1   209      1.5   903.0    0.00       0    48.3
 350   21:40   45.7    54    1.5   217      2.5   903.0    0.00       0    48.3
 350   21:50   45.7    59    1.6   218      3.8   903.1    0.00       0    48.2
 350   22:00   45.5    60    0.7   292      2.7   903.1    0.00       0    48.2
 350   22:10   45.6    60    1.8   248      3.4   903.2    0.00       0    48.1
 350   22:20   45.3    60    1.7   284      3.5   903.2    0.00       0    48.1
 350   22:30   45.1    59    1.4   276      3.5   903.0    0.00       0    48.1
 350   22:40   45.1    61    1.3   286      2.4   903.2    0.00       0    48.0
 350   22:50   45.7    61    0.9   245      3.9   903.2    0.00       0    48.0
 350   23:00   45.4    67    1.0    48      2.4   903.1    0.00       0    47.9
 350   23:10   44.4    71    0.5    86      1.6   903.2    0.00       0    47.9
 350   23:20   44.0    74    0.6   128      2.0   903.1    0.00       0    47.9
 350   23:30   43.4    77    1.1    99      2.9   903.0    0.00       0    47.8
 350   23:40   43.3    77    0.1   105      0.9   903.0    0.00       0    47.8
 350   23:50   43.2    78    0.8   230      1.8   902.7    0.00       0    47.8
 351    0:00   43.4    78    0.7   239      2.0   902.5    0.00       0    47.8
 351    0:10   43.2    79    0.8     6      1.6   902.4    0.00       0    47.7
 351    0:20   42.7    80    0.4    33      1.2   902.3    0.00       0    47.7
 351    0:30   42.3    80    0.6   317      1.5   902.1    0.00       0    47.6
 351    0:40   41.9    80    0.4   350      1.7   902.2    0.00       0    47.6
 351    0:50   41.9    80    0.4   286      1.1   902.2    0.00       0    47.5
 351    1:00   41.7    83    1.1   222      1.7   902.2    0.00       0    47.4
 351    1:10   41.7    82    0.9   236      1.7   902.0    0.00       0    47.3
 351    1:20   42.0    81    0.1   239      0.9   902.0    0.00       0    47.3
 351    1:30   41.8    82    1.4   239      2.2   902.0    0.00       0    47.2
 351    1:40   41.5    83    1.8   236      2.6   901.9    0.00       0    47.2
 351    1:50   41.1    83    2.2   238      3.3   902.0    0.00       0    47.1
 351    2:00   40.6    84    1.5   234      2.6   902.0    0.00       0    47.1
 351    2:10   40.5    84    1.8   239      2.7   902.0    0.00       0    47.0
 351    2:20   40.3    85    1.5   254      2.4   902.0    0.00       0    46.9
 351    2:30   40.5    85    1.9   230      2.9   902.0    0.00       0    46.8
 351    2:40   40.5    85    1.5   238      2.2   901.8    0.00       0    46.8
 351    2:50   40.6    85    0.8   226      2.0   902.0    0.00       0    46.7
 351    3:00   40.5    84    0.0     0      0.0   901.8    0.00       0    46.7
 351    3:10   40.1    85    0.5    77      2.6   902.0    0.00       0    46.6
 351    3:20   39.8    86    1.2    82      3.1   901.7    0.00       0    46.5
 351    3:30   39.9    86    0.1   102      0.7   901.6    0.00       0    46.5
 351    3:40   39.7    87    0.4   103      1.4   901.5    0.00       0    46.5
 351    3:50   39.7    87    0.0     0      0.0   901.4    0.00       0    46.4
 351    4:00   39.6    87    0.1    44      0.9   901.4    0.00       0    46.3
 351    4:10   39.6    88    0.2   225      1.5   901.2    0.00       0    46.3
 351    4:20   39.5    88    0.9   218      2.0   901.3    0.00       0    46.2
 351    4:30   39.6    88    0.0   207      0.4   901.2    0.00       0    46.1
 351    4:40   39.8    88    0.3   232      2.4   901.1    0.00       0    46.1
 351    4:50   39.5    87    1.4   243      2.9   901.3    0.00       0    46.0
 351    5:00   39.4    87    0.8   293      1.5   901.3    0.00       0    46.0
 351    5:10   39.0    87    2.3   240      3.4   901.4    0.00       0    45.9
 351    5:20   39.0    87    1.6   250      2.4   901.3    0.00       0    45.9
 351    5:30   39.7    86    0.5   293      1.8   901.5    0.00       0    45.8
 351    5:40   39.7    86    1.0   295      2.2   901.5    0.00       0    45.8
 351    5:50   39.1    88    1.5   241      2.5   901.6    0.00       0    45.7
 351    6:00   39.1    88    1.2   221      2.6   901.7    0.00       0    45.7
 351    6:10   39.5    87    2.0   233      3.4   901.8    0.00       0    45.6
 351    6:20   39.6    86    1.6   228      3.1   901.9    0.00       0    45.6
 351    6:30   39.7    86    1.7   240      2.8   902.0    0.00       0    45.5
 351    6:40   39.9    86    0.6   232      1.6   902.0    0.00       0    45.5
 351    6:50   40.1    86    0.1   227      0.7   902.1    0.00       1    45.5
 351    7:00   39.8    86    0.9    86      2.1   902.2    0.00       5    45.5
 351    7:10   39.5    87    1.1    88      2.0   902.3    0.00       6    45.4
 351    7:20   39.6    88    1.2    72      2.1   902.3    0.00       8    45.4
 351    7:30   39.9    88    0.6    76      1.6   902.4    0.00      17    45.4
 351    7:40   40.3    87    0.3    50      1.4   902.5    0.00      36    45.4
 351    7:50   40.7    87    0.5   250      2.0   902.6    0.00      56    45.4
 351    8:00   40.9    86    0.6   290      1.9   902.7    0.00      70    45.4
 351    8:10   41.4    84    0.6   261      1.2   902.8    0.00      92    45.3
 351    8:20   42.1    82    0.7     8      1.4   903.0    0.00      73    45.4
 351    8:30   42.4    81    0.7   354      1.2   903.3    0.00      53    45.4
 351    8:40   42.3    81    1.0   288      2.0   903.4    0.00      49    45.4
 351    8:50   42.4    82    0.6   300      1.7   903.6    0.00      55    45.5
 351    9:00   42.8    82    0.2   310      1.4   903.6    0.00      58    45.5
 351    9:10   42.9    81    0.3   304      1.2   903.7    0.00      62    45.6
 351    9:20   43.2    81    0.2   198      1.1   903.9    0.00      83    45.6
 351    9:30   43.2    80    0.6   286      1.9   904.2    0.01     100    45.7
 351    9:40   43.4    81    0.4   230      2.4   904.3    0.00     117    45.7
 351    9:50   43.5    80    0.8   212      1.8   904.4    0.00     149    45.8
 351   10:00   43.7    80    0.0   131      0.8   904.5    0.00     175    45.9
 351   10:10   44.0    79    0.6   245      2.4   904.5    0.00     160    45.9
 351   10:20   44.1    79    0.5    86      1.6   904.5    0.00     148    46.0
 351   10:30   44.2    79    1.0    57      3.1   904.5    0.00     152    46.2
 351   10:40   44.4    78    0.5    48      1.7   904.4    0.00     140    46.4
 351   10:50   44.4    78    1.2    31      3.2   904.4    0.00     155    46.5
 351   11:00   44.5    77    1.0    43      2.3   904.4    0.00     167    46.6
 351   11:10   44.6    77    0.4   196      1.2   904.3    0.00     135    46.7
 351   11:20   44.4    77    0.7    97      1.9   904.2    0.00     146    46.8
 351   11:30   44.6    78    0.9    25      2.8   904.1    0.00     171    46.9
 351   11:40   44.6    79    0.7   290      2.0   904.1    0.00     195    47.0
 351   11:50   44.7    79    1.3   308      3.2   904.0    0.00     201    47.1
 351   12:00   44.8    79    1.3   274      3.4   903.8    0.00     226    47.2
 351   12:10   44.8    79    1.2   278      2.7   903.8    0.00     218    47.4
 351   12:20   44.9    79    1.2   281      3.0   903.8    0.00     185    47.5
 351   12:30   44.9    79    1.3   311      3.1   903.8    0.00     183    47.6
 351   12:40   44.9    78    1.5   234      3.1   903.7    0.00     200    47.8
 351   12:50   45.0    77    1.4   237      3.1   903.5    0.00     214    47.9
 351   13:00   45.4    78    1.5   289      4.0   903.6    0.00     151    48.0
 351   13:10   45.1    79    2.1   278      4.4   903.6    0.00     107    48.2
 351   13:20   45.1    81    2.1   259      4.5   903.6    0.00     101    48.3
 351   13:30   44.8    80    1.9   250      3.8   903.6    0.00     147    48.4
 351   13:40   45.2    80    2.0   263      4.2   903.6    0.00     178    48.5

Return to Indian Springs, Nevada graphs page.


Western Regional Climate Center,wrcc@dri.edu